aviador You're here:

KENW Decoded Metar

KENOSHA in WI, USA
Report Time2017-11-23 19:53:00
UTC Time2017-11-23 20:30:11
Flight Rules vfr VFR
Wind240° at 10 kt
W.Decomp.*RWY 25: 9.9 kt HW 1.4 kt LCW
RWY 33: 0.3 kt HW 10 kt LCW
W.Rank240° ranks 4
Current wind is above 240° avg. (9.5)
Visibility9999 m
Phenomena:N/A
Clouds:N/A
Expected CloudBase > 4,400 ft AGL from Temp-Dew spread
CeilingNone
Temp07°C (ISA -7)
Dew Point-4°C (46% RH)
AAT0.9°C
QNH1012 hPa
Density Alt30 ft
Elevation719 ft
Report Wrong Elevation
Raw Report
METAR KENW 231953Z 24010KT 10SM CLR 07/M04 A2989 RMK AO2 SLP130 T00721044
$=

Extra information for KENW:More info

Metar Taf Metar & Taf Last 4 Metars F.Rules Stats Wind Profile Meteogram Temp Stats Airport Information Weather charts Add Link Nearby VenuesMetar ALERT Operation Metar Decoded Social comments

AIRNAV info for KENW